createdAt,value
2023-05-25T00:01:31.753Z,13.70
2023-05-25T00:04:00.718Z,11.93
2023-05-25T00:06:30.297Z,9.77
2023-05-25T00:08:59.087Z,8.80
2023-05-25T00:11:27.771Z,11.63
2023-05-25T00:13:56.494Z,10.90
2023-05-25T00:16:24.777Z,10.75
2023-05-25T00:18:57.709Z,8.80
2023-05-25T00:21:26.375Z,10.00
2023-05-25T00:23:55.093Z,11.65
2023-05-25T00:26:23.350Z,12.20
2023-05-25T00:28:51.941Z,10.20
2023-05-25T00:31:20.601Z,9.65
2023-05-25T00:33:50.549Z,12.23
2023-05-25T00:36:20.757Z,12.15
2023-05-25T00:38:49.224Z,12.98
2023-05-25T00:41:18.640Z,10.75
2023-05-25T00:43:47.664Z,15.77
2023-05-25T00:46:17.014Z,12.23
2023-05-25T00:48:47.116Z,17.42
2023-05-25T00:51:15.873Z,8.55
2023-05-25T00:53:45.996Z,9.48
2023-05-25T00:56:16.349Z,8.07
2023-05-25T00:58:46.227Z,7.65
2023-05-25T01:01:15.396Z,8.88
2023-05-25T01:03:46.910Z,7.50
2023-05-25T01:09:00.399Z,7.88
2023-05-25T01:11:30.645Z,8.32
2023-05-25T01:13:59.785Z,8.00
2023-05-25T01:16:28.161Z,9.45
2023-05-25T01:18:58.429Z,10.75
2023-05-25T01:21:31.987Z,9.75
2023-05-25T01:24:04.774Z,9.18
2023-05-25T01:26:36.447Z,9.70
2023-05-25T01:29:06.164Z,9.05
2023-05-25T01:31:36.226Z,10.90
2023-05-25T01:34:06.130Z,10.65
2023-05-25T01:36:35.771Z,11.05
2023-05-25T01:39:06.889Z,10.70
2023-05-25T01:41:35.267Z,11.75
2023-05-25T01:44:04.015Z,12.35
2023-05-25T01:46:35.785Z,9.55
2023-05-25T01:49:14.222Z,11.00
2023-05-25T01:51:49.634Z,11.48
2023-05-25T01:54:20.799Z,14.10
2023-05-25T01:56:51.132Z,15.55
2023-05-25T01:59:22.198Z,17.75
2023-05-25T02:01:52.950Z,16.75
2023-05-25T02:04:23.012Z,15.35
2023-05-25T02:06:54.124Z,14.32
2023-05-25T02:09:22.885Z,12.48
2023-05-25T02:11:51.249Z,14.90
2023-05-25T02:14:19.861Z,15.30
2023-05-25T02:16:48.520Z,11.30
2023-05-25T02:19:17.075Z,16.08
2023-05-25T02:21:47.517Z,13.95
2023-05-25T02:24:18.580Z,12.55
2023-05-25T02:26:47.032Z,12.90
2023-05-25T02:29:15.716Z,15.23
2023-05-25T02:31:44.148Z,17.15
2023-05-25T02:34:14.022Z,17.60
2023-05-25T02:36:43.474Z,20.77
2023-05-25T02:39:12.015Z,17.10
2023-05-25T02:41:41.834Z,15.00
2023-05-25T02:44:10.383Z,14.43
2023-05-25T02:46:38.845Z,14.63
2023-05-25T02:49:07.368Z,13.60
2023-05-25T02:51:36.074Z,13.13
2023-05-25T02:54:05.350Z,12.50
2023-05-25T02:56:33.817Z,16.10
2023-05-25T02:59:03.817Z,13.13
2023-05-25T03:01:32.409Z,11.65
2023-05-25T03:04:01.171Z,11.50
2023-05-25T03:06:30.035Z,12.15
2023-05-25T03:08:58.542Z,10.45
2023-05-25T03:11:27.032Z,12.45
2023-05-25T03:13:55.448Z,11.95
2023-05-25T03:16:26.152Z,10.52
2023-05-25T03:18:55.010Z,10.85
2023-05-25T03:21:23.808Z,9.93
2023-05-25T03:23:52.277Z,11.35
2023-05-25T03:26:21.228Z,8.57
2023-05-25T03:28:49.657Z,9.70
2023-05-25T03:31:18.127Z,8.43
2023-05-25T03:33:47.951Z,7.95
2023-05-25T03:36:17.639Z,10.98
2023-05-25T03:38:46.293Z,10.02
2023-05-25T03:41:14.481Z,10.10
2023-05-25T03:43:42.947Z,10.80
2023-05-25T03:46:11.791Z,10.63
2023-05-25T03:48:40.562Z,12.57
2023-05-25T03:51:10.101Z,12.68
2023-05-25T03:53:38.822Z,13.15
2023-05-25T03:56:08.225Z,11.38
2023-05-25T03:58:37.296Z,13.80
2023-05-25T04:01:05.779Z,14.25
2023-05-25T04:03:34.884Z,11.85
2023-05-25T04:06:04.151Z,13.90
2023-05-25T04:08:34.196Z,14.35
2023-05-25T04:11:02.506Z,14.75
2023-05-25T04:13:31.583Z,16.13
2023-05-25T04:15:59.921Z,16.90
2023-05-25T04:18:28.597Z,13.45
2023-05-25T04:20:57.617Z,12.45
2023-05-25T04:23:26.214Z,13.43
2023-05-25T04:25:56.336Z,12.05
2023-05-25T04:28:24.985Z,13.73
2023-05-25T04:30:57.416Z,15.85
2023-05-25T04:33:29.863Z,12.40
2023-05-25T04:35:59.829Z,13.13
2023-05-25T04:38:28.342Z,11.63
2023-05-25T04:40:58.904Z,11.43
2023-05-25T04:43:27.889Z,12.57
2023-05-25T04:45:56.880Z,13.77
2023-05-25T04:48:25.820Z,12.48
2023-05-25T04:50:55.839Z,12.65
2023-05-25T04:53:24.614Z,10.10
2023-05-25T04:55:54.846Z,11.50
2023-05-25T04:58:25.262Z,10.80
2023-05-25T05:00:53.621Z,11.60
2023-05-25T05:03:22.615Z,11.02
2023-05-25T05:05:51.052Z,11.95
2023-05-25T05:08:19.740Z,12.80
2023-05-25T05:10:48.126Z,9.25
2023-05-25T05:13:17.537Z,10.85
2023-05-25T05:15:48.807Z,10.70
2023-05-25T05:18:17.375Z,9.70
2023-05-25T05:20:46.460Z,12.82
2023-05-25T05:23:15.276Z,10.70
2023-05-25T05:25:43.887Z,13.80
2023-05-25T05:28:12.894Z,11.80
2023-05-25T05:30:41.298Z,14.75
2023-05-25T05:33:11.523Z,11.43
2023-05-25T05:35:39.835Z,9.88
2023-05-25T05:38:09.796Z,11.02
2023-05-25T05:40:38.332Z,10.75
2023-05-25T05:43:06.976Z,10.80
2023-05-25T05:45:35.566Z,10.40
2023-05-25T05:48:04.778Z,10.05
2023-05-25T05:50:34.490Z,9.60
2023-05-25T05:53:03.398Z,11.18
2023-05-25T05:55:31.743Z,9.80
2023-05-25T05:58:00.727Z,13.88
2023-05-25T06:00:29.205Z,10.88
2023-05-25T06:02:58.107Z,10.57
2023-05-25T06:05:27.105Z,14.70
2023-05-25T06:07:57.154Z,10.38
2023-05-25T06:10:25.594Z,10.60
2023-05-25T06:12:54.350Z,16.75
2023-05-25T06:15:22.682Z,14.70
2023-05-25T06:17:51.213Z,16.25
2023-05-25T06:20:19.532Z,13.68
2023-05-25T06:22:52.593Z,14.63
2023-05-25T06:27:51.058Z,13.68
2023-05-25T06:30:19.428Z,12.48
2023-05-25T06:32:48.584Z,11.63
2023-05-25T06:35:20.087Z,13.43
2023-05-25T06:37:49.481Z,15.23
2023-05-25T06:40:18.176Z,15.95
2023-05-25T06:42:48.222Z,12.65
2023-05-25T06:45:16.828Z,13.20
2023-05-25T06:47:45.821Z,13.82
2023-05-25T06:50:14.261Z,13.20
2023-05-25T06:52:42.959Z,12.52
2023-05-25T06:55:11.902Z,15.07
2023-05-25T06:57:41.607Z,13.98
2023-05-25T07:00:13.250Z,13.85
2023-05-25T07:02:42.191Z,14.07
2023-05-25T07:05:11.542Z,15.93
2023-05-25T07:07:40.116Z,11.07
2023-05-25T07:10:10.327Z,15.68
2023-05-25T07:12:39.227Z,11.32
2023-05-25T07:15:08.750Z,12.70
2023-05-25T07:17:39.169Z,12.77
2023-05-25T07:20:09.070Z,12.27
2023-05-25T07:22:38.042Z,13.18
2023-05-25T07:25:07.658Z,13.93
2023-05-25T07:27:36.384Z,18.67
2023-05-25T07:30:05.370Z,19.17
2023-05-25T07:32:34.084Z,23.42
2023-05-25T07:35:04.198Z,17.00
2023-05-25T07:37:32.865Z,18.35
2023-05-25T07:40:01.685Z,17.83
2023-05-25T07:42:34.408Z,22.73
2023-05-25T07:45:02.818Z,14.18
2023-05-25T07:47:31.809Z,16.02
2023-05-25T07:50:00.178Z,13.95
2023-05-25T07:52:30.415Z,15.35
2023-05-25T07:54:58.846Z,14.02
2023-05-25T07:57:27.419Z,16.55
2023-05-25T07:59:55.678Z,15.40
2023-05-25T08:02:24.388Z,19.77
2023-05-25T08:04:53.341Z,12.20
2023-05-25T08:07:22.157Z,12.88
2023-05-25T08:09:51.945Z,12.25
2023-05-25T08:14:52.127Z,14.90
2023-05-25T08:17:21.134Z,12.90
2023-05-25T08:19:49.757Z,19.20
2023-05-25T08:22:18.540Z,13.32
2023-05-25T08:24:46.983Z,11.32
2023-05-25T08:27:17.346Z,11.60
2023-05-25T08:29:45.721Z,15.82
2023-05-25T08:32:14.348Z,14.73
2023-05-25T08:34:42.497Z,15.73
2023-05-25T08:37:11.938Z,16.23
2023-05-25T08:39:40.467Z,17.00
2023-05-25T08:42:09.270Z,15.18
2023-05-25T08:44:40.217Z,16.88
2023-05-25T08:49:39.513Z,16.90
2023-05-25T08:52:12.422Z,15.27
2023-05-25T08:54:45.358Z,13.55
2023-05-25T08:57:16.887Z,17.75
2023-05-25T09:02:23.858Z,17.48
2023-05-25T09:04:52.512Z,21.05
2023-05-25T09:07:21.858Z,17.80
2023-05-25T09:09:50.742Z,18.95
2023-05-25T09:12:20.220Z,16.83
2023-05-25T09:14:50.116Z,19.83
2023-05-25T09:17:20.257Z,19.30
2023-05-25T09:19:48.809Z,19.98
2023-05-25T09:22:17.550Z,18.08
2023-05-25T09:24:46.238Z,17.65
2023-05-25T09:27:19.330Z,19.13
2023-05-25T09:29:50.713Z,22.08
2023-05-25T09:32:20.117Z,20.90
2023-05-25T09:34:48.927Z,19.80
2023-05-25T09:37:20.247Z,21.20
2023-05-25T09:39:49.221Z,24.30
2023-05-25T09:42:18.015Z,21.70
2023-05-25T09:44:46.509Z,22.80
2023-05-25T09:47:18.013Z,26.58
2023-05-25T09:49:49.525Z,22.83
2023-05-25T09:52:18.291Z,24.63
2023-05-25T09:54:47.430Z,24.42
2023-05-25T09:57:16.369Z,20.90
2023-05-25T09:59:45.532Z,21.95
2023-05-25T10:02:14.401Z,25.10
2023-05-25T10:04:44.138Z,19.98
2023-05-25T10:07:16.056Z,18.63
2023-05-25T10:09:47.643Z,21.23
2023-05-25T10:12:19.723Z,19.45
2023-05-25T10:14:50.771Z,20.33
2023-05-25T10:17:23.125Z,17.90
2023-05-25T10:19:57.041Z,18.77
2023-05-25T10:22:29.071Z,18.70
2023-05-25T10:25:03.553Z,19.52
2023-05-25T10:27:36.125Z,21.00
2023-05-25T10:30:04.731Z,19.58
2023-05-25T10:32:34.868Z,21.10
2023-05-25T10:35:05.442Z,24.38
2023-05-25T10:37:35.202Z,22.77
2023-05-25T10:40:03.818Z,19.88
2023-05-25T10:42:34.489Z,18.60
2023-05-25T10:45:03.448Z,26.17
2023-05-25T10:47:32.319Z,22.20
2023-05-25T10:50:03.245Z,22.52
2023-05-25T10:52:34.072Z,22.20
2023-05-25T10:55:05.395Z,21.38
2023-05-25T10:57:34.340Z,23.92
2023-05-25T11:00:06.667Z,23.73
2023-05-25T11:02:54.033Z,22.92
2023-05-25T11:05:36.845Z,22.73
2023-05-25T11:08:08.760Z,20.30
2023-05-25T11:10:56.730Z,18.80
2023-05-25T11:13:35.553Z,21.13
2023-05-25T11:16:19.146Z,18.85
2023-05-25T11:18:51.661Z,18.10
2023-05-25T11:21:40.926Z,14.43
2023-05-25T11:24:16.283Z,16.10
2023-05-25T11:26:59.224Z,20.55
2023-05-25T11:29:32.260Z,16.80
2023-05-25T11:32:01.545Z,17.60
2023-05-25T11:34:32.215Z,13.80
2023-05-25T11:37:04.048Z,17.40
2023-05-25T11:39:34.256Z,20.17
2023-05-25T11:42:07.110Z,19.17
2023-05-25T11:44:39.116Z,15.93
2023-05-25T11:47:10.290Z,15.45
2023-05-25T11:49:41.968Z,15.95
2023-05-25T11:52:10.722Z,13.45
2023-05-25T11:54:42.055Z,13.70
2023-05-25T11:57:15.759Z,14.27
2023-05-25T11:59:50.299Z,15.05
2023-05-25T12:02:18.900Z,16.75
2023-05-25T12:04:55.577Z,15.15
2023-05-25T12:07:24.776Z,16.08
2023-05-25T12:10:06.246Z,18.42
2023-05-25T12:12:42.674Z,14.95
2023-05-25T12:15:12.986Z,13.70
2023-05-25T12:17:44.401Z,13.63
2023-05-25T12:20:15.619Z,12.52
2023-05-25T12:22:45.252Z,11.65
2023-05-25T12:25:16.847Z,12.63
2023-05-25T12:30:16.380Z,14.77
2023-05-25T12:33:03.768Z,13.35
2023-05-25T12:35:46.295Z,11.57
2023-05-25T12:38:15.679Z,10.00
2023-05-25T12:40:46.322Z,10.18
2023-05-25T12:43:17.092Z,11.60
2023-05-25T12:45:46.498Z,12.05
2023-05-25T12:48:15.129Z,11.18
2023-05-25T12:50:59.268Z,17.63
2023-05-25T12:53:29.251Z,11.90
2023-05-25T12:56:06.617Z,11.87
2023-05-25T12:58:35.157Z,8.90
2023-05-25T13:01:04.202Z,13.85
2023-05-25T13:03:32.537Z,11.13
2023-05-25T13:06:02.653Z,10.18
2023-05-25T13:08:31.154Z,12.10
2023-05-25T13:11:00.323Z,10.73
2023-05-25T13:13:30.472Z,13.13
2023-05-25T13:15:59.429Z,11.65
2023-05-25T13:18:27.989Z,12.20
2023-05-25T13:20:57.485Z,13.00
2023-05-25T13:23:26.570Z,10.95
2023-05-25T13:25:55.156Z,10.55
2023-05-25T13:28:24.035Z,10.05
2023-05-25T13:30:54.248Z,10.80
2023-05-25T13:33:22.736Z,12.52
2023-05-25T13:35:59.300Z,10.07
2023-05-25T13:38:29.675Z,13.25
2023-05-25T13:40:58.663Z,10.82
2023-05-25T13:43:27.121Z,12.82
2023-05-25T13:45:59.202Z,12.70
2023-05-25T13:48:27.797Z,13.13
2023-05-25T13:50:56.814Z,12.02
2023-05-25T13:53:25.258Z,12.35
2023-05-25T13:55:54.469Z,10.73
2023-05-25T13:58:24.996Z,13.63
2023-05-25T14:00:53.973Z,11.75
2023-05-25T14:03:23.855Z,11.82
2023-05-25T14:05:54.111Z,12.25
2023-05-25T14:08:23.081Z,9.77
2023-05-25T14:10:51.783Z,12.48
2023-05-25T14:13:20.301Z,12.70
2023-05-25T14:15:49.378Z,11.23
2023-05-25T14:18:17.697Z,12.43
2023-05-25T14:20:48.161Z,13.45
2023-05-25T14:23:19.412Z,13.20
2023-05-25T14:25:49.905Z,11.57
2023-05-25T14:28:18.258Z,13.25
2023-05-25T14:30:46.897Z,13.77
2023-05-25T14:33:17.553Z,13.60
2023-05-25T14:35:47.888Z,14.45
2023-05-25T14:38:16.556Z,13.05
2023-05-25T14:40:45.755Z,13.88
2023-05-25T14:43:14.189Z,13.80
2023-05-25T14:45:43.054Z,13.65
2023-05-25T14:48:16.779Z,14.15
2023-05-25T14:50:47.298Z,14.27
2023-05-25T14:53:16.259Z,19.05
2023-05-25T14:55:45.300Z,19.20
2023-05-25T14:58:13.938Z,19.77
2023-05-25T15:00:42.754Z,18.98
2023-05-25T15:03:11.193Z,17.05
2023-05-25T15:05:40.038Z,23.02
2023-05-25T15:08:09.884Z,21.65
2023-05-25T15:10:38.899Z,22.40
2023-05-25T15:13:07.466Z,19.95
2023-05-25T15:15:36.437Z,21.27
2023-05-25T15:18:05.248Z,23.63
2023-05-25T15:20:34.115Z,25.40
2023-05-25T15:23:03.340Z,18.90
2023-05-25T15:25:35.649Z,19.58
2023-05-25T15:28:05.087Z,19.38
2023-05-25T15:30:34.584Z,15.63
2023-05-25T15:33:03.546Z,18.70
2023-05-25T15:35:35.599Z,15.73
2023-05-25T15:38:04.726Z,16.80
2023-05-25T15:40:37.361Z,15.30
2023-05-25T15:43:05.561Z,16.13
2023-05-25T15:45:34.483Z,17.05
2023-05-25T15:48:04.150Z,14.65
2023-05-25T15:50:33.176Z,17.10
2023-05-25T15:53:01.819Z,14.20
2023-05-25T15:55:30.460Z,13.98
2023-05-25T15:58:00.545Z,16.48
2023-05-25T16:00:29.317Z,12.88
2023-05-25T16:02:58.395Z,13.95
2023-05-25T16:05:30.340Z,13.88
2023-05-25T16:10:27.686Z,16.52
2023-05-25T16:12:56.315Z,16.98
2023-05-25T16:15:26.873Z,22.05
2023-05-25T16:17:55.561Z,18.27
2023-05-25T16:20:24.234Z,20.50
2023-05-25T16:22:52.710Z,15.18
2023-05-25T16:25:21.707Z,17.38
2023-05-25T16:27:50.259Z,16.92
2023-05-25T16:30:18.913Z,18.42
2023-05-25T16:32:49.100Z,14.65
2023-05-25T16:35:18.035Z,13.85
2023-05-25T16:37:46.521Z,14.00
2023-05-25T16:40:15.886Z,15.55
2023-05-25T16:42:44.429Z,34.10
2023-05-25T16:45:13.608Z,67.32
2023-05-25T16:47:42.249Z,22.75
2023-05-25T16:50:15.572Z,79.70
2023-05-25T16:52:44.093Z,48.78
2023-05-25T16:55:14.888Z,20.42
2023-05-25T16:57:45.189Z,18.57
2023-05-25T17:00:15.212Z,20.80
2023-05-25T17:02:43.726Z,17.40
2023-05-25T17:05:12.564Z,20.25
2023-05-25T17:07:42.692Z,15.82
2023-05-25T17:10:12.307Z,17.73
2023-05-25T17:12:40.949Z,14.80
2023-05-25T17:15:11.355Z,21.52
2023-05-25T17:17:39.863Z,24.20
2023-05-25T17:20:10.848Z,20.02
2023-05-25T17:22:39.776Z,15.85
2023-05-25T17:25:11.411Z,16.88
2023-05-25T17:27:40.167Z,16.50
2023-05-25T17:30:10.477Z,16.58
2023-05-25T17:32:40.179Z,17.60
2023-05-25T17:35:09.545Z,15.40
2023-05-25T17:37:38.204Z,15.48
2023-05-25T17:40:10.030Z,18.90
2023-05-25T17:42:40.797Z,16.50
2023-05-25T17:45:11.863Z,14.73
2023-05-25T17:47:40.473Z,17.58
2023-05-25T17:50:09.964Z,17.70
2023-05-25T17:52:38.609Z,19.55
2023-05-25T17:55:09.910Z,17.50
2023-05-25T17:57:38.228Z,22.20
2023-05-25T18:00:08.873Z,15.48
2023-05-25T18:02:37.610Z,19.10
2023-05-25T18:05:07.669Z,18.70
2023-05-25T18:07:36.161Z,18.05
2023-05-25T18:10:05.356Z,19.55
2023-05-25T18:12:35.271Z,18.30
2023-05-25T18:15:04.073Z,17.35
2023-05-25T18:17:32.614Z,18.58
2023-05-25T18:20:01.570Z,17.45
2023-05-25T18:22:30.150Z,17.55
2023-05-25T18:24:58.863Z,17.20
2023-05-25T18:27:27.298Z,17.33
2023-05-25T18:29:58.228Z,18.05
2023-05-25T18:32:26.702Z,17.70
2023-05-25T18:34:57.169Z,16.08
2023-05-25T18:37:26.723Z,17.20
2023-05-25T18:39:55.459Z,16.33
2023-05-25T18:42:24.012Z,16.30
2023-05-25T18:44:52.867Z,16.10
2023-05-25T18:47:23.933Z,16.13
2023-05-25T18:49:53.049Z,16.15
2023-05-25T18:52:22.524Z,17.45
2023-05-25T18:54:51.423Z,21.42
2023-05-25T18:57:20.162Z,15.45
2023-05-25T18:59:49.200Z,17.75
2023-05-25T19:02:18.295Z,13.80
2023-05-25T19:04:50.599Z,15.35
2023-05-25T19:07:19.137Z,15.73
2023-05-25T19:09:48.313Z,22.58
2023-05-25T19:12:16.595Z,19.20
2023-05-25T19:14:45.187Z,18.77
2023-05-25T19:17:14.550Z,19.35
2023-05-25T19:19:43.082Z,18.30
2023-05-25T19:22:13.023Z,17.58
2023-05-25T19:24:43.029Z,18.80
2023-05-25T19:27:15.322Z,20.10
2023-05-25T19:29:45.806Z,19.05
2023-05-25T19:32:15.155Z,19.00
2023-05-25T19:34:46.884Z,18.98
2023-05-25T19:37:16.536Z,19.17
2023-05-25T19:39:45.822Z,19.30
2023-05-25T19:42:14.213Z,20.33
2023-05-25T19:44:42.932Z,20.48
2023-05-25T19:47:11.266Z,21.20
2023-05-25T19:49:40.018Z,20.60
2023-05-25T19:52:08.544Z,21.58
2023-05-25T19:54:39.391Z,19.48
2023-05-25T19:57:07.854Z,22.83
2023-05-25T19:59:37.669Z,20.33
2023-05-25T20:02:06.508Z,20.52
2023-05-25T20:04:35.317Z,20.83
2023-05-25T20:07:03.704Z,21.58
2023-05-25T20:09:32.483Z,21.08
2023-05-25T20:12:02.660Z,22.95
2023-05-25T20:14:31.395Z,21.63
2023-05-25T20:16:59.825Z,24.05
2023-05-25T20:19:28.527Z,21.60
2023-05-25T20:21:57.920Z,22.30
2023-05-25T20:24:26.816Z,21.00
2023-05-25T20:26:56.907Z,23.60
2023-05-25T20:29:27.624Z,21.15
2023-05-25T20:31:55.977Z,21.95
2023-05-25T20:34:24.681Z,21.38
2023-05-25T20:36:53.660Z,23.13
2023-05-25T20:39:22.228Z,23.60
2023-05-25T20:41:50.727Z,20.27
2023-05-25T20:44:19.360Z,20.67
2023-05-25T20:46:49.062Z,19.42
2023-05-25T20:49:17.678Z,23.52
2023-05-25T20:51:50.072Z,21.30
2023-05-25T20:54:18.924Z,25.23
2023-05-25T20:56:51.161Z,20.00
2023-05-25T20:59:19.726Z,21.08
2023-05-25T21:01:49.397Z,21.65
2023-05-25T21:04:18.106Z,24.15
2023-05-25T21:06:46.888Z,25.55
2023-05-25T21:09:15.560Z,23.42
2023-05-25T21:11:43.971Z,22.23
2023-05-25T21:14:12.716Z,21.70
2023-05-25T21:16:41.188Z,24.00
2023-05-25T21:19:11.638Z,22.23
2023-05-25T21:21:40.223Z,23.00
2023-05-25T21:24:09.252Z,21.13
2023-05-25T21:26:37.646Z,20.27
2023-05-25T21:29:07.958Z,18.67
2023-05-25T21:31:36.408Z,20.88
2023-05-25T21:34:05.549Z,20.73
2023-05-25T21:36:36.389Z,20.58
2023-05-25T21:39:05.443Z,21.50
2023-05-25T21:41:33.838Z,23.05
2023-05-25T21:44:02.539Z,23.10
2023-05-25T21:46:31.076Z,21.77
2023-05-25T21:49:00.769Z,20.05
2023-05-25T21:51:30.099Z,24.88
2023-05-25T21:54:00.607Z,22.10
2023-05-25T21:56:29.102Z,19.70
2023-05-25T21:58:57.754Z,18.88
2023-05-25T22:01:26.284Z,20.92
2023-05-25T22:03:54.948Z,20.55
2023-05-25T22:06:24.420Z,17.73
2023-05-25T22:08:53.142Z,22.63
2023-05-25T22:11:24.594Z,21.90
2023-05-25T22:13:53.573Z,19.33
2023-05-25T22:16:22.298Z,22.42
2023-05-25T22:18:51.091Z,22.30
2023-05-25T22:21:19.368Z,21.55
2023-05-25T22:23:48.130Z,20.90
2023-05-25T22:26:16.409Z,20.42
2023-05-25T22:28:46.481Z,22.67
2023-05-25T22:31:14.940Z,22.08
2023-05-25T22:33:46.762Z,21.73
2023-05-25T22:36:16.389Z,20.63
2023-05-25T22:38:44.878Z,21.65
2023-05-25T22:41:13.660Z,20.48
2023-05-25T22:43:42.427Z,21.77
2023-05-25T22:46:12.192Z,21.30
2023-05-25T22:48:41.255Z,23.65
2023-05-25T22:51:09.540Z,22.95
2023-05-25T22:53:38.542Z,21.73
2023-05-25T22:56:07.040Z,23.70
2023-05-25T22:58:35.880Z,21.88
2023-05-25T23:01:04.248Z,22.90
2023-05-25T23:03:34.471Z,22.00
2023-05-25T23:06:03.070Z,25.45
2023-05-25T23:08:32.013Z,26.08
2023-05-25T23:11:00.275Z,24.08
2023-05-25T23:13:29.592Z,23.65
2023-05-25T23:15:57.981Z,27.50
2023-05-25T23:18:26.910Z,24.05
2023-05-25T23:20:56.830Z,26.63
2023-05-25T23:23:25.381Z,24.30
2023-05-25T23:25:54.360Z,25.70
2023-05-25T23:28:23.049Z,26.13
2023-05-25T23:30:51.981Z,31.00
2023-05-25T23:33:20.451Z,31.80
2023-05-25T23:35:49.121Z,25.98
2023-05-25T23:38:19.550Z,25.38
2023-05-25T23:40:47.874Z,31.15
2023-05-25T23:43:17.334Z,24.25
2023-05-25T23:45:45.876Z,27.63
2023-05-25T23:48:14.855Z,29.00
2023-05-25T23:50:43.124Z,29.35
2023-05-25T23:53:11.987Z,30.73
2023-05-25T23:55:42.033Z,30.10
2023-05-25T23:58:10.539Z,27.80
